sensor_id;sensor_type;location;lat;lon;timestamp;temperature;humidity
18229;DHT22;9239;50.932;3.142;2023-05-07T00:01:35;16.20;99.90
18229;DHT22;9239;50.932;3.142;2023-05-07T00:04:04;16.20;99.90
18229;DHT22;9239;50.932;3.142;2023-05-07T00:06:32;16.10;99.90
18229;DHT22;9239;50.932;3.142;2023-05-07T00:09:00;16.10;99.90
18229;DHT22;9239;50.932;3.142;2023-05-07T00:11:27;16.10;99.90
18229;DHT22;9239;50.932;3.142;2023-05-07T00:13:54;16.10;99.90
18229;DHT22;9239;50.932;3.142;2023-05-07T00:16:21;16.10;99.90
18229;DHT22;9239;50.932;3.142;2023-05-07T00:18:48;16.10;99.90
18229;DHT22;9239;50.932;3.142;2023-05-07T00:21:17;16.00;99.90
18229;DHT22;9239;50.932;3.142;2023-05-07T00:23:45;16.00;99.90
18229;DHT22;9239;50.932;3.142;2023-05-07T00:26:12;16.10;99.90
18229;DHT22;9239;50.932;3.142;2023-05-07T00:28:39;16.10;99.90
18229;DHT22;9239;50.932;3.142;2023-05-07T00:31:06;16.00;99.90
18229;DHT22;9239;50.932;3.142;2023-05-07T00:33:33;16.00;99.90
18229;DHT22;9239;50.932;3.142;2023-05-07T00:36:00;16.00;99.90
18229;DHT22;9239;50.932;3.142;2023-05-07T00:38:29;16.00;99.90
18229;DHT22;9239;50.932;3.142;2023-05-07T00:40:55;15.90;99.90
18229;DHT22;9239;50.932;3.142;2023-05-07T00:43:22;15.90;99.90
18229;DHT22;9239;50.932;3.142;2023-05-07T00:45:49;15.90;99.90
18229;DHT22;9239;50.932;3.142;2023-05-07T00:48:17;15.90;99.90
18229;DHT22;9239;50.932;3.142;2023-05-07T00:50:44;15.90;99.90
18229;DHT22;9239;50.932;3.142;2023-05-07T00:53:12;15.90;99.90
18229;DHT22;9239;50.932;3.142;2023-05-07T00:55:41;15.90;99.90
18229;DHT22;9239;50.932;3.142;2023-05-07T00:58:08;15.90;99.90
18229;DHT22;9239;50.932;3.142;2023-05-07T01:00:35;15.90;99.90
18229;DHT22;9239;50.932;3.142;2023-05-07T01:03:02;15.80;99.90
18229;DHT22;9239;50.932;3.142;2023-05-07T01:05:29;15.80;99.90
18229;DHT22;9239;50.932;3.142;2023-05-07T01:07:57;15.80;99.90
18229;DHT22;9239;50.932;3.142;2023-05-07T01:10:24;15.80;99.90
18229;DHT22;9239;50.932;3.142;2023-05-07T01:12:54;15.80;99.90
18229;DHT22;9239;50.932;3.142;2023-05-07T01:15:21;15.80;99.90
18229;DHT22;9239;50.932;3.142;2023-05-07T01:17:48;15.80;99.90
18229;DHT22;9239;50.932;3.142;2023-05-07T01:20:15;15.70;99.90
18229;DHT22;9239;50.932;3.142;2023-05-07T01:22:44;15.70;99.90
18229;DHT22;9239;50.932;3.142;2023-05-07T01:25:11;15.70;99.90
18229;DHT22;9239;50.932;3.142;2023-05-07T01:27:39;15.70;99.90
18229;DHT22;9239;50.932;3.142;2023-05-07T01:30:07;15.70;99.90
18229;DHT22;9239;50.932;3.142;2023-05-07T01:32:40;15.70;99.90
18229;DHT22;9239;50.932;3.142;2023-05-07T01:35:11;15.70;99.90
18229;DHT22;9239;50.932;3.142;2023-05-07T01:37:39;15.70;99.90
18229;DHT22;9239;50.932;3.142;2023-05-07T01:40:09;15.70;99.90
18229;DHT22;9239;50.932;3.142;2023-05-07T01:42:36;15.70;99.90
18229;DHT22;9239;50.932;3.142;2023-05-07T01:45:04;15.70;99.90
18229;DHT22;9239;50.932;3.142;2023-05-07T01:47:31;15.60;99.90
18229;DHT22;9239;50.932;3.142;2023-05-07T01:49:59;15.60;99.90
18229;DHT22;9239;50.932;3.142;2023-05-07T01:52:28;15.60;99.90
18229;DHT22;9239;50.932;3.142;2023-05-07T01:54:55;15.70;99.90
18229;DHT22;9239;50.932;3.142;2023-05-07T01:57:23;15.60;99.90
18229;DHT22;9239;50.932;3.142;2023-05-07T01:59:50;15.60;99.90
18229;DHT22;9239;50.932;3.142;2023-05-07T02:02:17;15.70;99.90
18229;DHT22;9239;50.932;3.142;2023-05-07T02:04:44;15.60;99.90
18229;DHT22;9239;50.932;3.142;2023-05-07T02:07:11;15.60;99.90
18229;DHT22;9239;50.932;3.142;2023-05-07T02:09:38;15.60;99.90
18229;DHT22;9239;50.932;3.142;2023-05-07T02:12:05;15.60;99.90
18229;DHT22;9239;50.932;3.142;2023-05-07T02:14:33;15.50;99.90
18229;DHT22;9239;50.932;3.142;2023-05-07T02:17:00;15.50;99.90
18229;DHT22;9239;50.932;3.142;2023-05-07T02:19:28;15.50;99.90
18229;DHT22;9239;50.932;3.142;2023-05-07T02:21:55;15.50;99.90
18229;DHT22;9239;50.932;3.142;2023-05-07T02:24:22;15.50;99.90
18229;DHT22;9239;50.932;3.142;2023-05-07T02:26:49;15.50;99.90
18229;DHT22;9239;50.932;3.142;2023-05-07T02:29:17;15.50;99.90
18229;DHT22;9239;50.932;3.142;2023-05-07T02:31:45;15.50;99.90
18229;DHT22;9239;50.932;3.142;2023-05-07T02:34:12;15.50;99.90
18229;DHT22;9239;50.932;3.142;2023-05-07T02:36:39;15.40;99.90
18229;DHT22;9239;50.932;3.142;2023-05-07T02:39:06;15.50;99.90
18229;DHT22;9239;50.932;3.142;2023-05-07T02:41:33;15.50;99.90
18229;DHT22;9239;50.932;3.142;2023-05-07T02:44:00;15.40;99.90
18229;DHT22;9239;50.932;3.142;2023-05-07T02:46:27;15.40;99.90
18229;DHT22;9239;50.932;3.142;2023-05-07T02:48:55;15.40;99.90
18229;DHT22;9239;50.932;3.142;2023-05-07T02:51:23;15.40;99.90
18229;DHT22;9239;50.932;3.142;2023-05-07T02:53:51;15.40;99.90
18229;DHT22;9239;50.932;3.142;2023-05-07T02:56:18;15.40;99.90
18229;DHT22;9239;50.932;3.142;2023-05-07T02:58:45;15.40;99.90
18229;DHT22;9239;50.932;3.142;2023-05-07T03:01:12;15.40;99.90
18229;DHT22;9239;50.932;3.142;2023-05-07T03:03:39;15.40;99.90
18229;DHT22;9239;50.932;3.142;2023-05-07T03:06:08;15.40;99.90
18229;DHT22;9239;50.932;3.142;2023-05-07T03:08:35;15.40;99.90
18229;DHT22;9239;50.932;3.142;2023-05-07T03:11:02;15.40;99.90
18229;DHT22;9239;50.932;3.142;2023-05-07T03:13:29;15.40;99.90
18229;DHT22;9239;50.932;3.142;2023-05-07T03:15:56;15.40;99.90
18229;DHT22;9239;50.932;3.142;2023-05-07T03:18:23;15.30;99.90
18229;DHT22;9239;50.932;3.142;2023-05-07T03:20:49;15.30;99.90
18229;DHT22;9239;50.932;3.142;2023-05-07T03:23:18;15.20;99.90
18229;DHT22;9239;50.932;3.142;2023-05-07T03:25:45;15.20;99.90
18229;DHT22;9239;50.932;3.142;2023-05-07T03:28:11;15.20;99.90
18229;DHT22;9239;50.932;3.142;2023-05-07T03:30:38;15.20;99.90
18229;DHT22;9239;50.932;3.142;2023-05-07T03:33:05;15.10;99.90
18229;DHT22;9239;50.932;3.142;2023-05-07T03:35:32;15.10;99.90
18229;DHT22;9239;50.932;3.142;2023-05-07T03:37:59;15.10;99.90
18229;DHT22;9239;50.932;3.142;2023-05-07T03:40:27;15.10;99.90
18229;DHT22;9239;50.932;3.142;2023-05-07T03:42:55;15.10;99.90
18229;DHT22;9239;50.932;3.142;2023-05-07T03:45:22;15.10;99.90
18229;DHT22;9239;50.932;3.142;2023-05-07T03:47:48;15.10;99.90
18229;DHT22;9239;50.932;3.142;2023-05-07T03:50:15;15.10;99.90
18229;DHT22;9239;50.932;3.142;2023-05-07T03:52:42;15.10;99.90
18229;DHT22;9239;50.932;3.142;2023-05-07T03:55:10;15.10;99.90
18229;DHT22;9239;50.932;3.142;2023-05-07T03:57:38;15.10;99.90
18229;DHT22;9239;50.932;3.142;2023-05-07T04:00:06;15.10;99.90
18229;DHT22;9239;50.932;3.142;2023-05-07T04:02:33;15.10;99.90
18229;DHT22;9239;50.932;3.142;2023-05-07T04:05:00;15.10;99.90
18229;DHT22;9239;50.932;3.142;2023-05-07T04:07:27;15.00;99.90
18229;DHT22;9239;50.932;3.142;2023-05-07T04:09:54;15.00;99.90
18229;DHT22;9239;50.932;3.142;2023-05-07T04:12:21;15.00;99.90
18229;DHT22;9239;50.932;3.142;2023-05-07T04:14:49;15.00;99.90
18229;DHT22;9239;50.932;3.142;2023-05-07T04:17:16;15.00;99.90
18229;DHT22;9239;50.932;3.142;2023-05-07T04:19:43;15.00;99.90
18229;DHT22;9239;50.932;3.142;2023-05-07T04:22:11;15.00;99.90
18229;DHT22;9239;50.932;3.142;2023-05-07T04:24:38;15.00;99.90
18229;DHT22;9239;50.932;3.142;2023-05-07T04:27:05;15.00;99.90
18229;DHT22;9239;50.932;3.142;2023-05-07T04:29:32;15.00;99.90
18229;DHT22;9239;50.932;3.142;2023-05-07T04:32:00;15.00;99.90
18229;DHT22;9239;50.932;3.142;2023-05-07T04:34:27;15.00;99.90
18229;DHT22;9239;50.932;3.142;2023-05-07T04:36:58;15.10;99.90
18229;DHT22;9239;50.932;3.142;2023-05-07T04:39:25;15.10;99.90
18229;DHT22;9239;50.932;3.142;2023-05-07T04:41:52;15.10;99.90
18229;DHT22;9239;50.932;3.142;2023-05-07T04:44:19;15.10;99.90
18229;DHT22;9239;50.932;3.142;2023-05-07T04:46:46;15.10;99.90
18229;DHT22;9239;50.932;3.142;2023-05-07T04:49:14;15.10;99.90
18229;DHT22;9239;50.932;3.142;2023-05-07T04:51:41;15.10;99.90
18229;DHT22;9239;50.932;3.142;2023-05-07T04:54:09;15.20;99.90
18229;DHT22;9239;50.932;3.142;2023-05-07T04:56:36;15.20;99.90
18229;DHT22;9239;50.932;3.142;2023-05-07T04:59:02;15.20;99.90
18229;DHT22;9239;50.932;3.142;2023-05-07T05:01:30;15.20;99.90
18229;DHT22;9239;50.932;3.142;2023-05-07T05:03:57;15.20;99.90
18229;DHT22;9239;50.932;3.142;2023-05-07T05:06:26;15.30;99.90
18229;DHT22;9239;50.932;3.142;2023-05-07T05:08:53;15.30;99.90
18229;DHT22;9239;50.932;3.142;2023-05-07T05:11:21;15.30;99.90
18229;DHT22;9239;50.932;3.142;2023-05-07T05:13:48;15.30;99.90
18229;DHT22;9239;50.932;3.142;2023-05-07T05:16:15;15.30;99.90
18229;DHT22;9239;50.932;3.142;2023-05-07T05:18:42;15.30;99.90
18229;DHT22;9239;50.932;3.142;2023-05-07T05:21:08;15.40;99.90
18229;DHT22;9239;50.932;3.142;2023-05-07T05:23:37;15.40;99.90
18229;DHT22;9239;50.932;3.142;2023-05-07T05:26:04;15.40;99.90
18229;DHT22;9239;50.932;3.142;2023-05-07T05:28:31;15.40;99.90
18229;DHT22;9239;50.932;3.142;2023-05-07T05:30:58;15.40;99.90
18229;DHT22;9239;50.932;3.142;2023-05-07T05:33:25;15.40;99.90
18229;DHT22;9239;50.932;3.142;2023-05-07T05:35:53;15.40;99.90
18229;DHT22;9239;50.932;3.142;2023-05-07T05:38:20;15.40;99.90
18229;DHT22;9239;50.932;3.142;2023-05-07T05:40:49;15.40;99.90
18229;DHT22;9239;50.932;3.142;2023-05-07T05:43:16;15.40;99.90
18229;DHT22;9239;50.932;3.142;2023-05-07T05:45:42;15.40;99.90
18229;DHT22;9239;50.932;3.142;2023-05-07T05:48:09;15.30;99.90
18229;DHT22;9239;50.932;3.142;2023-05-07T05:50:36;15.30;99.90
18229;DHT22;9239;50.932;3.142;2023-05-07T05:53:04;15.30;99.90
18229;DHT22;9239;50.932;3.142;2023-05-07T05:55:30;15.30;99.90
18229;DHT22;9239;50.932;3.142;2023-05-07T05:58:00;15.30;99.90
18229;DHT22;9239;50.932;3.142;2023-05-07T06:00:27;15.20;99.90
18229;DHT22;9239;50.932;3.142;2023-05-07T06:02:54;15.20;99.90
18229;DHT22;9239;50.932;3.142;2023-05-07T06:05:21;15.20;99.90
18229;DHT22;9239;50.932;3.142;2023-05-07T06:07:48;15.20;99.90
18229;DHT22;9239;50.932;3.142;2023-05-07T06:10:15;15.20;99.90
18229;DHT22;9239;50.932;3.142;2023-05-07T06:12:42;15.20;99.90
18229;DHT22;9239;50.932;3.142;2023-05-07T06:15:10;15.20;99.90
18229;DHT22;9239;50.932;3.142;2023-05-07T06:17:37;15.20;99.90
18229;DHT22;9239;50.932;3.142;2023-05-07T06:20:06;15.20;99.90
18229;DHT22;9239;50.932;3.142;2023-05-07T06:22:33;15.20;99.90
18229;DHT22;9239;50.932;3.142;2023-05-07T06:25:00;15.20;99.90
18229;DHT22;9239;50.932;3.142;2023-05-07T06:27:27;15.20;99.90
18229;DHT22;9239;50.932;3.142;2023-05-07T06:29:54;15.20;99.90
18229;DHT22;9239;50.932;3.142;2023-05-07T06:32:22;15.30;99.90
18229;DHT22;9239;50.932;3.142;2023-05-07T06:34:49;15.30;99.90
18229;DHT22;9239;50.932;3.142;2023-05-07T06:37:16;15.30;99.90
18229;DHT22;9239;50.932;3.142;2023-05-07T06:39:43;15.40;99.90
18229;DHT22;9239;50.932;3.142;2023-05-07T06:42:10;15.40;99.90
18229;DHT22;9239;50.932;3.142;2023-05-07T06:44:37;15.40;99.90
18229;DHT22;9239;50.932;3.142;2023-05-07T06:47:04;15.50;99.90
18229;DHT22;9239;50.932;3.142;2023-05-07T06:49:33;15.50;99.90
18229;DHT22;9239;50.932;3.142;2023-05-07T06:52:00;15.50;99.90
18229;DHT22;9239;50.932;3.142;2023-05-07T06:54:27;15.50;99.90
18229;DHT22;9239;50.932;3.142;2023-05-07T06:56:54;15.50;99.90
18229;DHT22;9239;50.932;3.142;2023-05-07T06:59:20;15.50;99.90
18229;DHT22;9239;50.932;3.142;2023-05-07T07:01:47;15.50;99.90
18229;DHT22;9239;50.932;3.142;2023-05-07T07:04:14;15.40;99.90
18229;DHT22;9239;50.932;3.142;2023-05-07T07:06:43;15.40;99.90
18229;DHT22;9239;50.932;3.142;2023-05-07T07:09:10;15.40;99.90
18229;DHT22;9239;50.932;3.142;2023-05-07T07:11:37;15.40;99.90
18229;DHT22;9239;50.932;3.142;2023-05-07T07:14:05;15.40;99.90
18229;DHT22;9239;50.932;3.142;2023-05-07T07:16:31;15.40;99.90
18229;DHT22;9239;50.932;3.142;2023-05-07T07:18:58;15.40;99.90
18229;DHT22;9239;50.932;3.142;2023-05-07T07:21:25;15.40;99.90
18229;DHT22;9239;50.932;3.142;2023-05-07T07:23:54;15.40;99.90
18229;DHT22;9239;50.932;3.142;2023-05-07T07:26:21;15.50;99.90
18229;DHT22;9239;50.932;3.142;2023-05-07T07:28:48;15.50;99.90
18229;DHT22;9239;50.932;3.142;2023-05-07T07:31:15;15.50;99.90
18229;DHT22;9239;50.932;3.142;2023-05-07T07:33:42;15.50;99.90
18229;DHT22;9239;50.932;3.142;2023-05-07T07:36:10;15.60;99.90
18229;DHT22;9239;50.932;3.142;2023-05-07T07:38:37;15.60;99.90
18229;DHT22;9239;50.932;3.142;2023-05-07T07:41:05;15.60;99.90
18229;DHT22;9239;50.932;3.142;2023-05-07T07:43:34;15.70;99.90
18229;DHT22;9239;50.932;3.142;2023-05-07T07:46:01;15.80;99.90
18229;DHT22;9239;50.932;3.142;2023-05-07T07:48:28;15.80;99.90
18229;DHT22;9239;50.932;3.142;2023-05-07T07:50:55;15.80;99.90
18229;DHT22;9239;50.932;3.142;2023-05-07T07:53:21;15.80;99.90
18229;DHT22;9239;50.932;3.142;2023-05-07T07:55:48;15.80;99.90
18229;DHT22;9239;50.932;3.142;2023-05-07T07:58:17;15.80;99.90
18229;DHT22;9239;50.932;3.142;2023-05-07T08:00:44;15.80;99.90
18229;DHT22;9239;50.932;3.142;2023-05-07T08:03:12;15.80;99.90
18229;DHT22;9239;50.932;3.142;2023-05-07T08:05:42;15.80;99.90
18229;DHT22;9239;50.932;3.142;2023-05-07T08:08:09;15.70;99.90
18229;DHT22;9239;50.932;3.142;2023-05-07T08:10:36;15.70;99.90
18229;DHT22;9239;50.932;3.142;2023-05-07T08:13:04;15.70;99.90
18229;DHT22;9239;50.932;3.142;2023-05-07T08:15:33;15.70;99.90
18229;DHT22;9239;50.932;3.142;2023-05-07T08:18:00;15.60;99.90
18229;DHT22;9239;50.932;3.142;2023-05-07T08:20:30;15.70;99.90
18229;DHT22;9239;50.932;3.142;2023-05-07T08:22:57;15.60;99.90
18229;DHT22;9239;50.932;3.142;2023-05-07T08:25:24;15.70;99.90
18229;DHT22;9239;50.932;3.142;2023-05-07T08:27:50;15.70;99.90
18229;DHT22;9239;50.932;3.142;2023-05-07T08:30:17;15.60;99.90
18229;DHT22;9239;50.932;3.142;2023-05-07T08:32:46;15.70;99.90
18229;DHT22;9239;50.932;3.142;2023-05-07T08:35:13;15.70;99.90
18229;DHT22;9239;50.932;3.142;2023-05-07T08:37:40;15.70;99.90
18229;DHT22;9239;50.932;3.142;2023-05-07T08:40:07;15.60;99.90
18229;DHT22;9239;50.932;3.142;2023-05-07T08:42:36;15.60;99.90
18229;DHT22;9239;50.932;3.142;2023-05-07T08:45:04;15.60;99.90
18229;DHT22;9239;50.932;3.142;2023-05-07T08:47:42;15.60;99.90
18229;DHT22;9239;50.932;3.142;2023-05-07T08:50:11;15.70;99.90
18229;DHT22;9239;50.932;3.142;2023-05-07T08:52:39;15.60;99.90
18229;DHT22;9239;50.932;3.142;2023-05-07T08:55:08;15.70;99.90
18229;DHT22;9239;50.932;3.142;2023-05-07T08:57:35;15.70;99.90
18229;DHT22;9239;50.932;3.142;2023-05-07T09:00:03;15.70;99.90
18229;DHT22;9239;50.932;3.142;2023-05-07T09:02:32;15.80;99.90
18229;DHT22;9239;50.932;3.142;2023-05-07T09:05:00;15.80;99.90
18229;DHT22;9239;50.932;3.142;2023-05-07T09:07:28;15.80;99.90
18229;DHT22;9239;50.932;3.142;2023-05-07T09:09:56;15.90;99.90
18229;DHT22;9239;50.932;3.142;2023-05-07T09:12:23;15.90;99.90
18229;DHT22;9239;50.932;3.142;2023-05-07T09:14:50;15.90;99.90
18229;DHT22;9239;50.932;3.142;2023-05-07T09:17:20;15.90;99.90
18229;DHT22;9239;50.932;3.142;2023-05-07T09:19:48;15.90;99.90
18229;DHT22;9239;50.932;3.142;2023-05-07T09:22:15;15.90;99.90
18229;DHT22;9239;50.932;3.142;2023-05-07T09:24:47;16.00;99.90
18229;DHT22;9239;50.932;3.142;2023-05-07T09:27:14;16.00;99.90
18229;DHT22;9239;50.932;3.142;2023-05-07T09:29:41;16.00;99.90
18229;DHT22;9239;50.932;3.142;2023-05-07T09:32:09;16.00;99.90
18229;DHT22;9239;50.932;3.142;2023-05-07T09:34:36;16.00;99.90
18229;DHT22;9239;50.932;3.142;2023-05-07T09:37:04;16.00;99.90
18229;DHT22;9239;50.932;3.142;2023-05-07T09:39:41;16.00;99.90
18229;DHT22;9239;50.932;3.142;2023-05-07T09:42:10;16.00;99.90
18229;DHT22;9239;50.932;3.142;2023-05-07T09:44:38;16.10;99.90
18229;DHT22;9239;50.932;3.142;2023-05-07T09:47:06;16.10;99.90
18229;DHT22;9239;50.932;3.142;2023-05-07T09:49:35;16.10;99.90
18229;DHT22;9239;50.932;3.142;2023-05-07T09:52:03;16.10;99.90
18229;DHT22;9239;50.932;3.142;2023-05-07T09:54:32;16.20;99.90
18229;DHT22;9239;50.932;3.142;2023-05-07T09:57:01;16.30;99.90
18229;DHT22;9239;50.932;3.142;2023-05-07T09:59:31;16.30;99.90
18229;DHT22;9239;50.932;3.142;2023-05-07T10:02:01;16.30;99.90
18229;DHT22;9239;50.932;3.142;2023-05-07T10:04:29;16.30;99.90
18229;DHT22;9239;50.932;3.142;2023-05-07T10:06:57;16.30;99.90
18229;DHT22;9239;50.932;3.142;2023-05-07T10:09:26;16.30;99.90
18229;DHT22;9239;50.932;3.142;2023-05-07T10:11:54;16.20;99.90
18229;DHT22;9239;50.932;3.142;2023-05-07T10:14:21;16.20;99.90
18229;DHT22;9239;50.932;3.142;2023-05-07T10:16:50;16.20;99.90
18229;DHT22;9239;50.932;3.142;2023-05-07T10:19:18;16.20;99.90
18229;DHT22;9239;50.932;3.142;2023-05-07T10:21:51;16.10;99.90
18229;DHT22;9239;50.932;3.142;2023-05-07T10:24:25;16.10;99.90
18229;DHT22;9239;50.932;3.142;2023-05-07T10:26:53;16.10;99.90
18229;DHT22;9239;50.932;3.142;2023-05-07T10:29:33;16.00;99.90
18229;DHT22;9239;50.932;3.142;2023-05-07T10:32:14;16.00;99.90
18229;DHT22;9239;50.932;3.142;2023-05-07T10:34:47;16.00;99.90
18229;DHT22;9239;50.932;3.142;2023-05-07T10:37:15;16.00;99.90
18229;DHT22;9239;50.932;3.142;2023-05-07T10:39:43;16.00;99.90
18229;DHT22;9239;50.932;3.142;2023-05-07T10:42:11;16.00;99.90
18229;DHT22;9239;50.932;3.142;2023-05-07T10:44:39;16.00;99.90
18229;DHT22;9239;50.932;3.142;2023-05-07T10:47:09;16.00;99.90
18229;DHT22;9239;50.932;3.142;2023-05-07T10:49:36;16.10;99.90
18229;DHT22;9239;50.932;3.142;2023-05-07T10:52:17;16.00;99.90
18229;DHT22;9239;50.932;3.142;2023-05-07T10:54:45;16.00;99.90
18229;DHT22;9239;50.932;3.142;2023-05-07T10:57:34;16.00;99.90
18229;DHT22;9239;50.932;3.142;2023-05-07T11:00:03;16.00;99.90
18229;DHT22;9239;50.932;3.142;2023-05-07T11:03:07;16.00;99.90
18229;DHT22;9239;50.932;3.142;2023-05-07T11:05:35;15.90;99.90
18229;DHT22;9239;50.932;3.142;2023-05-07T11:08:03;16.00;99.90
18229;DHT22;9239;50.932;3.142;2023-05-07T11:10:51;16.00;99.90
18229;DHT22;9239;50.932;3.142;2023-05-07T11:13:19;16.10;99.90
18229;DHT22;9239;50.932;3.142;2023-05-07T11:16:17;16.00;99.90
18229;DHT22;9239;50.932;3.142;2023-05-07T11:18:49;16.00;99.90
18229;DHT22;9239;50.932;3.142;2023-05-07T11:21:33;16.00;99.90
18229;DHT22;9239;50.932;3.142;2023-05-07T11:24:01;16.10;99.90
18229;DHT22;9239;50.932;3.142;2023-05-07T11:26:41;16.10;99.90
18229;DHT22;9239;50.932;3.142;2023-05-07T11:29:11;16.10;99.90
18229;DHT22;9239;50.932;3.142;2023-05-07T11:31:38;16.10;99.90
18229;DHT22;9239;50.932;3.142;2023-05-07T11:34:07;16.10;99.90
18229;DHT22;9239;50.932;3.142;2023-05-07T11:36:34;16.10;99.90
18229;DHT22;9239;50.932;3.142;2023-05-07T11:39:02;16.10;99.90
18229;DHT22;9239;50.932;3.142;2023-05-07T11:41:36;16.20;99.90
18229;DHT22;9239;50.932;3.142;2023-05-07T11:44:03;16.30;99.90
18229;DHT22;9239;50.932;3.142;2023-05-07T11:46:30;16.30;99.90
18229;DHT22;9239;50.932;3.142;2023-05-07T11:48:58;16.30;99.90
18229;DHT22;9239;50.932;3.142;2023-05-07T11:51:26;16.40;99.90
18229;DHT22;9239;50.932;3.142;2023-05-07T11:53:53;16.40;99.90
18229;DHT22;9239;50.932;3.142;2023-05-07T11:56:20;16.40;99.90
18229;DHT22;9239;50.932;3.142;2023-05-07T11:58:48;16.40;99.90
18229;DHT22;9239;50.932;3.142;2023-05-07T12:01:16;16.50;99.90
18229;DHT22;9239;50.932;3.142;2023-05-07T12:03:45;16.60;99.90
18229;DHT22;9239;50.932;3.142;2023-05-07T12:06:13;16.60;99.90
18229;DHT22;9239;50.932;3.142;2023-05-07T12:08:43;16.70;99.90
18229;DHT22;9239;50.932;3.142;2023-05-07T12:11:15;16.70;99.90
18229;DHT22;9239;50.932;3.142;2023-05-07T12:13:43;16.80;99.90
18229;DHT22;9239;50.932;3.142;2023-05-07T12:16:11;16.70;99.90
18229;DHT22;9239;50.932;3.142;2023-05-07T12:18:38;16.80;99.90
18229;DHT22;9239;50.932;3.142;2023-05-07T12:21:06;16.70;99.90
18229;DHT22;9239;50.932;3.142;2023-05-07T12:23:34;16.70;99.90
18229;DHT22;9239;50.932;3.142;2023-05-07T12:26:04;16.80;99.90
18229;DHT22;9239;50.932;3.142;2023-05-07T12:28:35;16.80;99.90
18229;DHT22;9239;50.932;3.142;2023-05-07T12:31:03;16.90;99.90
18229;DHT22;9239;50.932;3.142;2023-05-07T12:33:31;16.90;99.90
18229;DHT22;9239;50.932;3.142;2023-05-07T12:35:58;16.80;99.90
18229;DHT22;9239;50.932;3.142;2023-05-07T12:38:35;16.70;99.90
18229;DHT22;9239;50.932;3.142;2023-05-07T12:41:04;16.70;99.90
18229;DHT22;9239;50.932;3.142;2023-05-07T12:43:32;16.70;99.90
18229;DHT22;9239;50.932;3.142;2023-05-07T12:46:00;16.70;99.90
18229;DHT22;9239;50.932;3.142;2023-05-07T12:48:28;16.80;99.90
18229;DHT22;9239;50.932;3.142;2023-05-07T12:50:56;16.80;99.90
18229;DHT22;9239;50.932;3.142;2023-05-07T12:53:26;16.80;99.90
18229;DHT22;9239;50.932;3.142;2023-05-07T12:55:57;16.80;99.90
18229;DHT22;9239;50.932;3.142;2023-05-07T12:58:27;16.80;99.90
18229;DHT22;9239;50.932;3.142;2023-05-07T13:00:54;16.60;99.90
18229;DHT22;9239;50.932;3.142;2023-05-07T13:03:25;16.70;99.90
18229;DHT22;9239;50.932;3.142;2023-05-07T13:05:57;16.80;99.90
18229;DHT22;9239;50.932;3.142;2023-05-07T13:08:29;16.80;99.90
18229;DHT22;9239;50.932;3.142;2023-05-07T13:10:58;16.80;99.90
18229;DHT22;9239;50.932;3.142;2023-05-07T13:13:30;16.90;99.90
18229;DHT22;9239;50.932;3.142;2023-05-07T13:15:57;16.90;99.90
18229;DHT22;9239;50.932;3.142;2023-05-07T13:18:25;16.90;99.90
18229;DHT22;9239;50.932;3.142;2023-05-07T13:20:52;16.90;99.90
18229;DHT22;9239;50.932;3.142;2023-05-07T13:23:19;17.00;99.90
18229;DHT22;9239;50.932;3.142;2023-05-07T13:25:47;16.90;99.90
18229;DHT22;9239;50.932;3.142;2023-05-07T13:28:14;17.00;99.90
18229;DHT22;9239;50.932;3.142;2023-05-07T13:30:42;16.90;99.90
18229;DHT22;9239;50.932;3.142;2023-05-07T13:33:10;17.00;99.90
18229;DHT22;9239;50.932;3.142;2023-05-07T13:35:38;17.10;99.90
18229;DHT22;9239;50.932;3.142;2023-05-07T13:38:06;17.10;99.90
18229;DHT22;9239;50.932;3.142;2023-05-07T13:40:34;17.10;99.90
18229;DHT22;9239;50.932;3.142;2023-05-07T13:43:01;17.10;99.90
18229;DHT22;9239;50.932;3.142;2023-05-07T13:45:28;17.20;99.90
18229;DHT22;9239;50.932;3.142;2023-05-07T13:47:58;17.30;99.90
18229;DHT22;9239;50.932;3.142;2023-05-07T13:50:27;17.30;99.90
18229;DHT22;9239;50.932;3.142;2023-05-07T13:52:55;17.40;99.90
18229;DHT22;9239;50.932;3.142;2023-05-07T13:55:24;17.50;99.90
18229;DHT22;9239;50.932;3.142;2023-05-07T13:57:58;17.50;99.90
18229;DHT22;9239;50.932;3.142;2023-05-07T14:00:26;17.60;99.90
18229;DHT22;9239;50.932;3.142;2023-05-07T14:02:53;17.80;99.90
18229;DHT22;9239;50.932;3.142;2023-05-07T14:05:22;17.70;99.90
18229;DHT22;9239;50.932;3.142;2023-05-07T14:07:51;17.70;99.90
18229;DHT22;9239;50.932;3.142;2023-05-07T14:10:18;17.70;99.90
18229;DHT22;9239;50.932;3.142;2023-05-07T14:12:45;17.80;99.90
18229;DHT22;9239;50.932;3.142;2023-05-07T14:15:12;17.80;99.90
18229;DHT22;9239;50.932;3.142;2023-05-07T14:17:39;17.90;99.90
18229;DHT22;9239;50.932;3.142;2023-05-07T14:20:07;18.00;99.90
18229;DHT22;9239;50.932;3.142;2023-05-07T14:22:37;18.00;99.90
18229;DHT22;9239;50.932;3.142;2023-05-07T14:25:06;18.00;99.90
18229;DHT22;9239;50.932;3.142;2023-05-07T14:27:33;18.00;99.90
18229;DHT22;9239;50.932;3.142;2023-05-07T14:30:00;18.00;99.90
18229;DHT22;9239;50.932;3.142;2023-05-07T14:32:27;18.10;99.90
18229;DHT22;9239;50.932;3.142;2023-05-07T14:34:54;18.30;99.90
18229;DHT22;9239;50.932;3.142;2023-05-07T14:37:21;18.30;99.90
18229;DHT22;9239;50.932;3.142;2023-05-07T14:39:50;18.40;99.90
18229;DHT22;9239;50.932;3.142;2023-05-07T14:42:16;18.50;99.90
18229;DHT22;9239;50.932;3.142;2023-05-07T14:44:43;18.60;99.90
18229;DHT22;9239;50.932;3.142;2023-05-07T14:47:12;18.80;99.90
18229;DHT22;9239;50.932;3.142;2023-05-07T14:49:39;18.80;99.90
18229;DHT22;9239;50.932;3.142;2023-05-07T14:52:06;18.90;99.90
18229;DHT22;9239;50.932;3.142;2023-05-07T14:54:34;19.10;99.90
18229;DHT22;9239;50.932;3.142;2023-05-07T14:57:04;19.20;99.90
18229;DHT22;9239;50.932;3.142;2023-05-07T14:59:32;19.30;99.90
18229;DHT22;9239;50.932;3.142;2023-05-07T15:01:59;19.40;99.90
18229;DHT22;9239;50.932;3.142;2023-05-07T15:04:26;19.30;99.90
18229;DHT22;9239;50.932;3.142;2023-05-07T15:06:53;19.10;99.90
18229;DHT22;9239;50.932;3.142;2023-05-07T15:09:21;19.00;99.90
18229;DHT22;9239;50.932;3.142;2023-05-07T15:11:48;18.90;99.90
18229;DHT22;9239;50.932;3.142;2023-05-07T15:14:17;18.80;99.90
18229;DHT22;9239;50.932;3.142;2023-05-07T15:16:45;18.80;99.90
18229;DHT22;9239;50.932;3.142;2023-05-07T15:19:12;18.60;99.90
18229;DHT22;9239;50.932;3.142;2023-05-07T15:21:40;18.60;99.90
18229;DHT22;9239;50.932;3.142;2023-05-07T15:24:07;18.70;99.90
18229;DHT22;9239;50.932;3.142;2023-05-07T15:26:34;18.70;99.90
18229;DHT22;9239;50.932;3.142;2023-05-07T15:29:01;18.70;99.90
18229;DHT22;9239;50.932;3.142;2023-05-07T15:31:34;18.80;99.90
18229;DHT22;9239;50.932;3.142;2023-05-07T15:34:03;19.00;99.90
18229;DHT22;9239;50.932;3.142;2023-05-07T15:36:30;19.20;99.90
18229;DHT22;9239;50.932;3.142;2023-05-07T15:38:57;19.30;99.90
18229;DHT22;9239;50.932;3.142;2023-05-07T15:41:24;19.30;99.90
18229;DHT22;9239;50.932;3.142;2023-05-07T15:43:52;19.20;99.90
18229;DHT22;9239;50.932;3.142;2023-05-07T15:46:20;19.30;99.90
18229;DHT22;9239;50.932;3.142;2023-05-07T15:48:50;19.30;99.90
18229;DHT22;9239;50.932;3.142;2023-05-07T15:51:17;19.40;99.90